sensor_id;sensor_type;location;lat;lon;timestamp;pressure;altitude;pressure_sealevel;temperature
14851;BMP180;7517;48.400;11.770;2022-08-02T00:01:46;96685.00;;;25.30
14851;BMP180;7517;48.400;11.770;2022-08-02T00:04:13;96693.00;;;25.30
14851;BMP180;7517;48.400;11.770;2022-08-02T00:06:40;96694.00;;;25.30
14851;BMP180;7517;48.400;11.770;2022-08-02T00:09:07;96701.00;;;25.20
14851;BMP180;7517;48.400;11.770;2022-08-02T00:11:35;96705.00;;;25.20
14851;BMP180;7517;48.400;11.770;2022-08-02T00:14:04;96702.00;;;25.20
14851;BMP180;7517;48.400;11.770;2022-08-02T00:16:31;96695.00;;;25.10
14851;BMP180;7517;48.400;11.770;2022-08-02T00:18:59;96703.00;;;25.10
14851;BMP180;7517;48.400;11.770;2022-08-02T00:21:26;96700.00;;;25.10
14851;BMP180;7517;48.400;11.770;2022-08-02T00:23:53;96700.00;;;25.00
14851;BMP180;7517;48.400;11.770;2022-08-02T00:26:20;96702.00;;;25.00
14851;BMP180;7517;48.400;11.770;2022-08-02T00:28:48;96712.00;;;24.90
14851;BMP180;7517;48.400;11.770;2022-08-02T00:31:16;96712.00;;;24.90
14851;BMP180;7517;48.400;11.770;2022-08-02T00:33:43;96728.00;;;24.90
14851;BMP180;7517;48.400;11.770;2022-08-02T00:36:10;96724.00;;;24.90
14851;BMP180;7517;48.400;11.770;2022-08-02T00:38:38;96727.00;;;24.80
14851;BMP180;7517;48.400;11.770;2022-08-02T00:41:12;96730.00;;;24.80
14851;BMP180;7517;48.400;11.770;2022-08-02T00:43:41;96739.00;;;24.80
14851;BMP180;7517;48.400;11.770;2022-08-02T00:46:08;96735.00;;;24.80
14851;BMP180;7517;48.400;11.770;2022-08-02T00:48:37;96736.00;;;24.70
14851;BMP180;7517;48.400;11.770;2022-08-02T00:51:04;96723.00;;;24.70
14851;BMP180;7517;48.400;11.770;2022-08-02T00:53:32;96730.00;;;24.70
14851;BMP180;7517;48.400;11.770;2022-08-02T00:56:00;96728.00;;;24.70
14851;BMP180;7517;48.400;11.770;2022-08-02T00:58:28;96721.00;;;24.60
14851;BMP180;7517;48.400;11.770;2022-08-02T01:00:55;96721.00;;;24.60
14851;BMP180;7517;48.400;11.770;2022-08-02T01:03:26;96725.00;;;24.50
14851;BMP180;7517;48.400;11.770;2022-08-02T01:05:54;96721.00;;;24.50
14851;BMP180;7517;48.400;11.770;2022-08-02T01:08:21;96722.00;;;24.50
14851;BMP180;7517;48.400;11.770;2022-08-02T01:10:49;96718.00;;;24.40
14851;BMP180;7517;48.400;11.770;2022-08-02T01:13:16;96717.00;;;24.40
14851;BMP180;7517;48.400;11.770;2022-08-02T01:15:59;96717.00;;;24.40
14851;BMP180;7517;48.400;11.770;2022-08-02T01:18:34;96713.00;;;24.30
14851;BMP180;7517;48.400;11.770;2022-08-02T01:21:34;96712.00;;;24.30
14851;BMP180;7517;48.400;11.770;2022-08-02T01:24:23;96712.00;;;24.30
14851;BMP180;7517;48.400;11.770;2022-08-02T01:27:10;96713.00;;;24.20
14851;BMP180;7517;48.400;11.770;2022-08-02T01:29:50;96713.00;;;24.20
14851;BMP180;7517;48.400;11.770;2022-08-02T01:32:28;96722.00;;;24.20
14851;BMP180;7517;48.400;11.770;2022-08-02T01:35:02;96714.00;;;24.10
14851;BMP180;7517;48.400;11.770;2022-08-02T01:37:42;96713.00;;;24.10
14851;BMP180;7517;48.400;11.770;2022-08-02T01:40:15;96714.00;;;24.10
14851;BMP180;7517;48.400;11.770;2022-08-02T01:42:48;96720.00;;;24.00
14851;BMP180;7517;48.400;11.770;2022-08-02T01:45:20;96711.00;;;24.00
14851;BMP180;7517;48.400;11.770;2022-08-02T01:47:49;96711.00;;;24.00
14851;BMP180;7517;48.400;11.770;2022-08-02T01:50:23;96707.00;;;24.00
14851;BMP180;7517;48.400;11.770;2022-08-02T01:52:56;96701.00;;;23.90
14851;BMP180;7517;48.400;11.770;2022-08-02T01:55:29;96701.00;;;23.90
14851;BMP180;7517;48.400;11.770;2022-08-02T01:57:58;96700.00;;;23.90
14851;BMP180;7517;48.400;11.770;2022-08-02T02:00:31;96699.00;;;23.90
14851;BMP180;7517;48.400;11.770;2022-08-02T02:03:01;96691.00;;;23.90
14851;BMP180;7517;48.400;11.770;2022-08-02T02:05:32;96693.00;;;23.90
14851;BMP180;7517;48.400;11.770;2022-08-02T02:08:04;96691.00;;;23.90
14851;BMP180;7517;48.400;11.770;2022-08-02T02:10:35;96693.00;;;23.80
14851;BMP180;7517;48.400;11.770;2022-08-02T02:13:07;96690.00;;;23.80
14851;BMP180;7517;48.400;11.770;2022-08-02T02:15:40;96689.00;;;23.80
14851;BMP180;7517;48.400;11.770;2022-08-02T02:18:11;96688.00;;;23.80
14851;BMP180;7517;48.400;11.770;2022-08-02T02:20:41;96690.00;;;23.80
14851;BMP180;7517;48.400;11.770;2022-08-02T02:23:09;96686.00;;;23.70
14851;BMP180;7517;48.400;11.770;2022-08-02T02:25:39;96698.00;;;23.70
14851;BMP180;7517;48.400;11.770;2022-08-02T02:28:13;96696.00;;;23.70
14851;BMP180;7517;48.400;11.770;2022-08-02T02:30:48;96694.00;;;23.70
14851;BMP180;7517;48.400;11.770;2022-08-02T02:33:18;96693.00;;;23.70
14851;BMP180;7517;48.400;11.770;2022-08-02T02:35:49;96700.00;;;23.70
14851;BMP180;7517;48.400;11.770;2022-08-02T02:38:19;96697.00;;;23.70
14851;BMP180;7517;48.400;11.770;2022-08-02T02:40:48;96700.00;;;23.70
14851;BMP180;7517;48.400;11.770;2022-08-02T02:43:17;96695.00;;;23.60
14851;BMP180;7517;48.400;11.770;2022-08-02T02:45:46;96703.00;;;23.60
14851;BMP180;7517;48.400;11.770;2022-08-02T02:48:14;96699.00;;;23.60
14851;BMP180;7517;48.400;11.770;2022-08-02T02:50:43;96702.00;;;23.60
14851;BMP180;7517;48.400;11.770;2022-08-02T02:53:12;96699.00;;;23.60
14851;BMP180;7517;48.400;11.770;2022-08-02T02:55:43;96699.00;;;23.60
14851;BMP180;7517;48.400;11.770;2022-08-02T02:58:12;96698.00;;;23.60
14851;BMP180;7517;48.400;11.770;2022-08-02T03:00:39;96709.00;;;23.60
14851;BMP180;7517;48.400;11.770;2022-08-02T03:03:26;96706.00;;;23.50
14851;BMP180;7517;48.400;11.770;2022-08-02T03:05:54;96710.00;;;23.60
14851;BMP180;7517;48.400;11.770;2022-08-02T03:08:22;96711.00;;;23.60
14851;BMP180;7517;48.400;11.770;2022-08-02T03:10:49;96713.00;;;23.60
14851;BMP180;7517;48.400;11.770;2022-08-02T03:13:17;96712.00;;;23.60
14851;BMP180;7517;48.400;11.770;2022-08-02T03:15:45;96717.00;;;23.60
14851;BMP180;7517;48.400;11.770;2022-08-02T03:18:33;96722.00;;;23.60
14851;BMP180;7517;48.400;11.770;2022-08-02T03:21:02;96719.00;;;23.60
14851;BMP180;7517;48.400;11.770;2022-08-02T03:23:31;96717.00;;;23.60
14851;BMP180;7517;48.400;11.770;2022-08-02T03:25:59;96721.00;;;23.60
14851;BMP180;7517;48.400;11.770;2022-08-02T03:28:26;96727.00;;;23.60
14851;BMP180;7517;48.400;11.770;2022-08-02T03:30:54;96724.00;;;23.60
14851;BMP180;7517;48.400;11.770;2022-08-02T03:33:23;96725.00;;;23.60
14851;BMP180;7517;48.400;11.770;2022-08-02T03:35:56;96727.00;;;23.60
14851;BMP180;7517;48.400;11.770;2022-08-02T03:38:25;96733.00;;;23.70
14851;BMP180;7517;48.400;11.770;2022-08-02T03:40:53;96732.00;;;23.70
14851;BMP180;7517;48.400;11.770;2022-08-02T03:43:24;96731.00;;;23.70
14851;BMP180;7517;48.400;11.770;2022-08-02T03:45:52;96736.00;;;23.70
14851;BMP180;7517;48.400;11.770;2022-08-02T03:48:20;96734.00;;;23.70
14851;BMP180;7517;48.400;11.770;2022-08-02T03:50:50;96730.00;;;23.70
14851;BMP180;7517;48.400;11.770;2022-08-02T03:53:18;96724.00;;;23.70
14851;BMP180;7517;48.400;11.770;2022-08-02T03:55:46;96726.00;;;23.60
14851;BMP180;7517;48.400;11.770;2022-08-02T03:58:18;96739.00;;;23.60
14851;BMP180;7517;48.400;11.770;2022-08-02T04:00:46;96730.00;;;23.60
14851;BMP180;7517;48.400;11.770;2022-08-02T04:03:14;96728.00;;;23.60
14851;BMP180;7517;48.400;11.770;2022-08-02T04:05:41;96726.00;;;23.60
14851;BMP180;7517;48.400;11.770;2022-08-02T04:08:10;96725.00;;;23.60
14851;BMP180;7517;48.400;11.770;2022-08-02T04:10:37;96731.00;;;23.60
14851;BMP180;7517;48.400;11.770;2022-08-02T04:13:26;96733.00;;;23.60
14851;BMP180;7517;48.400;11.770;2022-08-02T04:15:58;96731.00;;;23.60
14851;BMP180;7517;48.400;11.770;2022-08-02T04:18:34;96741.00;;;23.60
14851;BMP180;7517;48.400;11.770;2022-08-02T04:21:06;96740.00;;;23.60
14851;BMP180;7517;48.400;11.770;2022-08-02T04:23:38;96742.00;;;23.70
14851;BMP180;7517;48.400;11.770;2022-08-02T04:26:06;96742.00;;;23.70
14851;BMP180;7517;48.400;11.770;2022-08-02T04:28:35;96751.00;;;23.70
14851;BMP180;7517;48.400;11.770;2022-08-02T04:31:02;96755.00;;;23.70
14851;BMP180;7517;48.400;11.770;2022-08-02T04:33:30;96756.00;;;23.70
14851;BMP180;7517;48.400;11.770;2022-08-02T04:35:58;96760.00;;;23.70
14851;BMP180;7517;48.400;11.770;2022-08-02T04:38:25;96757.00;;;23.70
14851;BMP180;7517;48.400;11.770;2022-08-02T04:40:55;96765.00;;;23.70
14851;BMP180;7517;48.400;11.770;2022-08-02T04:43:23;96763.00;;;23.70
14851;BMP180;7517;48.400;11.770;2022-08-02T04:45:52;96778.00;;;23.70
14851;BMP180;7517;48.400;11.770;2022-08-02T04:48:21;96778.00;;;23.70
14851;BMP180;7517;48.400;11.770;2022-08-02T04:50:49;96782.00;;;23.60
14851;BMP180;7517;48.400;11.770;2022-08-02T04:53:16;96779.00;;;23.60
14851;BMP180;7517;48.400;11.770;2022-08-02T04:55:44;96780.00;;;23.60
14851;BMP180;7517;48.400;11.770;2022-08-02T04:58:13;96786.00;;;23.60
14851;BMP180;7517;48.400;11.770;2022-08-02T05:00:44;96791.00;;;23.60
14851;BMP180;7517;48.400;11.770;2022-08-02T05:03:11;96781.00;;;23.70
14851;BMP180;7517;48.400;11.770;2022-08-02T05:05:39;96782.00;;;23.70
14851;BMP180;7517;48.400;11.770;2022-08-02T05:08:06;96780.00;;;23.70
14851;BMP180;7517;48.400;11.770;2022-08-02T05:10:33;96780.00;;;23.80
14851;BMP180;7517;48.400;11.770;2022-08-02T05:13:03;96773.00;;;23.80
14851;BMP180;7517;48.400;11.770;2022-08-02T05:15:32;96771.00;;;23.80
14851;BMP180;7517;48.400;11.770;2022-08-02T05:18:00;96765.00;;;23.80
14851;BMP180;7517;48.400;11.770;2022-08-02T05:20:27;96760.00;;;23.80
14851;BMP180;7517;48.400;11.770;2022-08-02T05:22:54;96760.00;;;23.80
14851;BMP180;7517;48.400;11.770;2022-08-02T05:25:21;96771.00;;;23.80
14851;BMP180;7517;48.400;11.770;2022-08-02T05:27:48;96771.00;;;23.80
14851;BMP180;7517;48.400;11.770;2022-08-02T05:30:16;96771.00;;;23.80
14851;BMP180;7517;48.400;11.770;2022-08-02T05:32:46;96776.00;;;23.80
14851;BMP180;7517;48.400;11.770;2022-08-02T05:35:17;96779.00;;;23.90
14851;BMP180;7517;48.400;11.770;2022-08-02T05:37:46;96778.00;;;23.90
14851;BMP180;7517;48.400;11.770;2022-08-02T05:40:13;96774.00;;;24.00
14851;BMP180;7517;48.400;11.770;2022-08-02T05:42:41;96768.00;;;24.00
14851;BMP180;7517;48.400;11.770;2022-08-02T05:45:09;96770.00;;;24.00
14851;BMP180;7517;48.400;11.770;2022-08-02T05:47:37;96776.00;;;24.10
14851;BMP180;7517;48.400;11.770;2022-08-02T05:50:08;96770.00;;;24.10
14851;BMP180;7517;48.400;11.770;2022-08-02T05:52:44;96775.00;;;24.10
14851;BMP180;7517;48.400;11.770;2022-08-02T05:55:16;96777.00;;;24.10
14851;BMP180;7517;48.400;11.770;2022-08-02T05:58:05;96786.00;;;24.10
14851;BMP180;7517;48.400;11.770;2022-08-02T06:00:40;96768.00;;;24.10
14851;BMP180;7517;48.400;11.770;2022-08-02T06:03:21;96775.00;;;24.10
14851;BMP180;7517;48.400;11.770;2022-08-02T06:05:58;96770.00;;;24.10
14851;BMP180;7517;48.400;11.770;2022-08-02T06:08:33;96768.00;;;24.10
14851;BMP180;7517;48.400;11.770;2022-08-02T06:11:05;96768.00;;;24.10
14851;BMP180;7517;48.400;11.770;2022-08-02T06:13:33;96768.00;;;24.10
14851;BMP180;7517;48.400;11.770;2022-08-02T06:16:01;96776.00;;;24.10
14851;BMP180;7517;48.400;11.770;2022-08-02T06:18:32;96772.00;;;24.10
14851;BMP180;7517;48.400;11.770;2022-08-02T06:21:04;96772.00;;;24.10
14851;BMP180;7517;48.400;11.770;2022-08-02T06:23:38;96775.00;;;24.10
14851;BMP180;7517;48.400;11.770;2022-08-02T06:26:08;96779.00;;;24.10
14851;BMP180;7517;48.400;11.770;2022-08-02T06:28:37;96772.00;;;24.10
14851;BMP180;7517;48.400;11.770;2022-08-02T06:31:05;96769.00;;;24.10
14851;BMP180;7517;48.400;11.770;2022-08-02T06:33:33;96767.00;;;24.00
14851;BMP180;7517;48.400;11.770;2022-08-02T06:36:07;96771.00;;;24.10
14851;BMP180;7517;48.400;11.770;2022-08-02T06:38:40;96766.00;;;24.10
14851;BMP180;7517;48.400;11.770;2022-08-02T06:41:12;96766.00;;;24.10
14851;BMP180;7517;48.400;11.770;2022-08-02T06:43:49;96766.00;;;24.20
14851;BMP180;7517;48.400;11.770;2022-08-02T06:46:18;96764.00;;;24.20
14851;BMP180;7517;48.400;11.770;2022-08-02T06:48:46;96763.00;;;24.30
14851;BMP180;7517;48.400;11.770;2022-08-02T06:51:15;96764.00;;;24.30
14851;BMP180;7517;48.400;11.770;2022-08-02T06:53:43;96771.00;;;24.40
14851;BMP180;7517;48.400;11.770;2022-08-02T06:56:12;96769.00;;;24.40
14851;BMP180;7517;48.400;11.770;2022-08-02T06:58:43;96769.00;;;24.50
14851;BMP180;7517;48.400;11.770;2022-08-02T07:01:17;96775.00;;;24.60
14851;BMP180;7517;48.400;11.770;2022-08-02T07:03:45;96770.00;;;24.70
14851;BMP180;7517;48.400;11.770;2022-08-02T07:06:17;96782.00;;;24.80
14851;BMP180;7517;48.400;11.770;2022-08-02T07:08:44;96774.00;;;25.00
14851;BMP180;7517;48.400;11.770;2022-08-02T07:11:13;96777.00;;;25.10
14851;BMP180;7517;48.400;11.770;2022-08-02T07:13:40;96780.00;;;25.20
14851;BMP180;7517;48.400;11.770;2022-08-02T07:16:07;96777.00;;;25.30
14851;BMP180;7517;48.400;11.770;2022-08-02T07:18:35;96774.00;;;25.30
14851;BMP180;7517;48.400;11.770;2022-08-02T07:21:06;96771.00;;;25.50
14851;BMP180;7517;48.400;11.770;2022-08-02T07:23:38;96779.00;;;25.60
14851;BMP180;7517;48.400;11.770;2022-08-02T07:26:05;96774.00;;;25.80
14851;BMP180;7517;48.400;11.770;2022-08-02T07:28:32;96786.00;;;25.90
14851;BMP180;7517;48.400;11.770;2022-08-02T07:31:00;96784.00;;;26.10
14851;BMP180;7517;48.400;11.770;2022-08-02T07:33:27;96786.00;;;26.20
14851;BMP180;7517;48.400;11.770;2022-08-02T07:35:54;96786.00;;;26.40
14851;BMP180;7517;48.400;11.770;2022-08-02T07:38:22;96788.00;;;26.50
14851;BMP180;7517;48.400;11.770;2022-08-02T07:40:51;96784.00;;;26.60
14851;BMP180;7517;48.400;11.770;2022-08-02T07:43:21;96783.00;;;26.70
14851;BMP180;7517;48.400;11.770;2022-08-02T07:45:55;96784.00;;;26.70
14851;BMP180;7517;48.400;11.770;2022-08-02T07:48:22;96786.00;;;26.80
14851;BMP180;7517;48.400;11.770;2022-08-02T07:50:49;96783.00;;;26.80
14851;BMP180;7517;48.400;11.770;2022-08-02T07:53:17;96782.00;;;26.90
14851;BMP180;7517;48.400;11.770;2022-08-02T07:55:45;96780.00;;;27.10
14851;BMP180;7517;48.400;11.770;2022-08-02T07:58:13;96782.00;;;27.20
14851;BMP180;7517;48.400;11.770;2022-08-02T08:00:42;96785.00;;;27.40
14851;BMP180;7517;48.400;11.770;2022-08-02T08:03:10;96781.00;;;27.50
14851;BMP180;7517;48.400;11.770;2022-08-02T08:05:37;96774.00;;;27.60
14851;BMP180;7517;48.400;11.770;2022-08-02T08:08:05;96775.00;;;27.80
14851;BMP180;7517;48.400;11.770;2022-08-02T08:10:33;96769.00;;;27.90
14851;BMP180;7517;48.400;11.770;2022-08-02T08:13:00;96773.00;;;28.00
14851;BMP180;7517;48.400;11.770;2022-08-02T08:15:28;96772.00;;;28.10
14851;BMP180;7517;48.400;11.770;2022-08-02T08:17:56;96773.00;;;28.30
14851;BMP180;7517;48.400;11.770;2022-08-02T08:20:23;96773.00;;;28.40
14851;BMP180;7517;48.400;11.770;2022-08-02T08:22:50;96771.00;;;28.50
14851;BMP180;7517;48.400;11.770;2022-08-02T08:25:18;96772.00;;;28.70
14851;BMP180;7517;48.400;11.770;2022-08-02T08:27:49;96775.00;;;28.90
14851;BMP180;7517;48.400;11.770;2022-08-02T08:30:17;96771.00;;;29.00
14851;BMP180;7517;48.400;11.770;2022-08-02T08:32:46;96770.00;;;29.20
14851;BMP180;7517;48.400;11.770;2022-08-02T08:35:17;96774.00;;;29.30
14851;BMP180;7517;48.400;11.770;2022-08-02T08:37:45;96768.00;;;29.40
14851;BMP180;7517;48.400;11.770;2022-08-02T08:40:14;96766.00;;;29.60
14851;BMP180;7517;48.400;11.770;2022-08-02T08:42:43;96765.00;;;29.80
14851;BMP180;7517;48.400;11.770;2022-08-02T08:45:10;96762.00;;;29.90
14851;BMP180;7517;48.400;11.770;2022-08-02T08:47:40;96770.00;;;30.10
14851;BMP180;7517;48.400;11.770;2022-08-02T08:50:13;96770.00;;;30.20
14851;BMP180;7517;48.400;11.770;2022-08-02T08:52:48;96770.00;;;30.40
14851;BMP180;7517;48.400;11.770;2022-08-02T08:55:16;96772.00;;;30.60
14851;BMP180;7517;48.400;11.770;2022-08-02T08:57:52;96769.00;;;30.80
14851;BMP180;7517;48.400;11.770;2022-08-02T09:00:32;96775.00;;;30.90
14851;BMP180;7517;48.400;11.770;2022-08-02T09:03:02;96774.00;;;31.00
14851;BMP180;7517;48.400;11.770;2022-08-02T09:05:34;96782.00;;;31.10
14851;BMP180;7517;48.400;11.770;2022-08-02T09:08:03;96782.00;;;31.30
14851;BMP180;7517;48.400;11.770;2022-08-02T09:10:37;96777.00;;;31.50
14851;BMP180;7517;48.400;11.770;2022-08-02T09:13:14;96776.00;;;31.60
14851;BMP180;7517;48.400;11.770;2022-08-02T09:15:44;96783.00;;;31.80
14851;BMP180;7517;48.400;11.770;2022-08-02T09:18:12;96788.00;;;32.00
14851;BMP180;7517;48.400;11.770;2022-08-02T09:20:58;96786.00;;;32.20
14851;BMP180;7517;48.400;11.770;2022-08-02T09:23:35;96783.00;;;32.50
14851;BMP180;7517;48.400;11.770;2022-08-02T09:26:05;96793.00;;;32.60
14851;BMP180;7517;48.400;11.770;2022-08-02T09:28:36;96789.00;;;32.80
14851;BMP180;7517;48.400;11.770;2022-08-02T09:31:05;96795.00;;;33.00
14851;BMP180;7517;48.400;11.770;2022-08-02T09:33:35;96793.00;;;33.20
14851;BMP180;7517;48.400;11.770;2022-08-02T09:36:06;96799.00;;;33.30
14851;BMP180;7517;48.400;11.770;2022-08-02T09:38:35;96804.00;;;33.30
14851;BMP180;7517;48.400;11.770;2022-08-02T09:41:05;96794.00;;;33.40
14851;BMP180;7517;48.400;11.770;2022-08-02T09:43:40;96799.00;;;33.60
14851;BMP180;7517;48.400;11.770;2022-08-02T09:46:14;96799.00;;;33.80
14851;BMP180;7517;48.400;11.770;2022-08-02T09:48:51;96798.00;;;34.10
14851;BMP180;7517;48.400;11.770;2022-08-02T09:51:24;96793.00;;;34.30
14851;BMP180;7517;48.400;11.770;2022-08-02T09:53:53;96789.00;;;34.50
14851;BMP180;7517;48.400;11.770;2022-08-02T09:59:15;96791.00;;;34.90
14851;BMP180;7517;48.400;11.770;2022-08-02T10:01:46;96805.00;;;35.10
14851;BMP180;7517;48.400;11.770;2022-08-02T10:04:14;96798.00;;;35.30
14851;BMP180;7517;48.400;11.770;2022-08-02T10:06:47;96800.00;;;35.50
14851;BMP180;7517;48.400;11.770;2022-08-02T10:09:15;96806.00;;;35.70
14851;BMP180;7517;48.400;11.770;2022-08-02T10:11:43;96795.00;;;35.90
14851;BMP180;7517;48.400;11.770;2022-08-02T10:14:11;96792.00;;;36.00
14851;BMP180;7517;48.400;11.770;2022-08-02T10:16:42;96786.00;;;36.10
14851;BMP180;7517;48.400;11.770;2022-08-02T10:19:10;96789.00;;;36.20
14851;BMP180;7517;48.400;11.770;2022-08-02T10:21:47;96789.00;;;36.30
14851;BMP180;7517;48.400;11.770;2022-08-02T10:24:20;96790.00;;;36.30
14851;BMP180;7517;48.400;11.770;2022-08-02T10:26:48;96798.00;;;36.40
14851;BMP180;7517;48.400;11.770;2022-08-02T10:29:18;96793.00;;;36.40
14851;BMP180;7517;48.400;11.770;2022-08-02T10:31:54;96792.00;;;36.40
14851;BMP180;7517;48.400;11.770;2022-08-02T10:34:30;96784.00;;;36.40
14851;BMP180;7517;48.400;11.770;2022-08-02T10:37:03;96789.00;;;36.40
14851;BMP180;7517;48.400;11.770;2022-08-02T10:39:42;96786.00;;;36.40
14851;BMP180;7517;48.400;11.770;2022-08-02T10:42:43;96783.00;;;36.40
14851;BMP180;7517;48.400;11.770;2022-08-02T10:45:14;96774.00;;;36.40
14851;BMP180;7517;48.400;11.770;2022-08-02T10:48:01;96769.00;;;36.40
14851;BMP180;7517;48.400;11.770;2022-08-02T10:50:52;96771.00;;;36.40
14851;BMP180;7517;48.400;11.770;2022-08-02T10:53:27;96778.00;;;36.40
14851;BMP180;7517;48.400;11.770;2022-08-02T10:55:58;96770.00;;;36.40
14851;BMP180;7517;48.400;11.770;2022-08-02T10:58:29;96765.00;;;36.30
14851;BMP180;7517;48.400;11.770;2022-08-02T11:01:02;96769.00;;;36.20
14851;BMP180;7517;48.400;11.770;2022-08-02T11:03:35;96758.00;;;36.00
14851;BMP180;7517;48.400;11.770;2022-08-02T11:06:07;96751.00;;;35.80
14851;BMP180;7517;48.400;11.770;2022-08-02T11:08:36;96752.00;;;35.60
14851;BMP180;7517;48.400;11.770;2022-08-02T11:11:17;96757.00;;;35.40
14851;BMP180;7517;48.400;11.770;2022-08-02T11:14:06;96740.00;;;35.10
14851;BMP180;7517;48.400;11.770;2022-08-02T11:17:12;96733.00;;;34.70
14851;BMP180;7517;48.400;11.770;2022-08-02T11:20:17;96723.00;;;34.30
14851;BMP180;7517;48.400;11.770;2022-08-02T11:22:48;96726.00;;;34.10
14851;BMP180;7517;48.400;11.770;2022-08-02T11:25:33;96723.00;;;33.80
14851;BMP180;7517;48.400;11.770;2022-08-02T11:28:09;96734.00;;;33.60
14851;BMP180;7517;48.400;11.770;2022-08-02T11:30:38;96722.00;;;33.40
14851;BMP180;7517;48.400;11.770;2022-08-02T11:33:05;96729.00;;;33.40
14851;BMP180;7517;48.400;11.770;2022-08-02T11:35:38;96724.00;;;33.30
14851;BMP180;7517;48.400;11.770;2022-08-02T11:38:17;96720.00;;;33.20
14851;BMP180;7517;48.400;11.770;2022-08-02T11:40:47;96717.00;;;33.20
14851;BMP180;7517;48.400;11.770;2022-08-02T11:43:20;96713.00;;;33.10
14851;BMP180;7517;48.400;11.770;2022-08-02T11:45:51;96711.00;;;33.00
14851;BMP180;7517;48.400;11.770;2022-08-02T11:48:33;96721.00;;;33.00
14851;BMP180;7517;48.400;11.770;2022-08-02T11:51:10;96720.00;;;33.00
14851;BMP180;7517;48.400;11.770;2022-08-02T11:53:43;96721.00;;;32.90
14851;BMP180;7517;48.400;11.770;2022-08-02T11:56:14;96721.00;;;32.90
14851;BMP180;7517;48.400;11.770;2022-08-02T11:58:59;96719.00;;;32.90
14851;BMP180;7517;48.400;11.770;2022-08-02T12:01:26;96716.00;;;32.80
14851;BMP180;7517;48.400;11.770;2022-08-02T12:03:55;96717.00;;;32.80
14851;BMP180;7517;48.400;11.770;2022-08-02T12:06:26;96715.00;;;32.80
14851;BMP180;7517;48.400;11.770;2022-08-02T12:09:02;96719.00;;;32.80
14851;BMP180;7517;48.400;11.770;2022-08-02T12:11:31;96726.00;;;32.80
14851;BMP180;7517;48.400;11.770;2022-08-02T12:13:59;96718.00;;;32.80
14851;BMP180;7517;48.400;11.770;2022-08-02T12:16:35;96714.00;;;32.90
14851;BMP180;7517;48.400;11.770;2022-08-02T12:19:20;96718.00;;;32.90
14851;BMP180;7517;48.400;11.770;2022-08-02T12:22:09;96710.00;;;32.90
14851;BMP180;7517;48.400;11.770;2022-08-02T12:24:39;96707.00;;;32.80
14851;BMP180;7517;48.400;11.770;2022-08-02T12:27:26;96708.00;;;32.80
14851;BMP180;7517;48.400;11.770;2022-08-02T12:30:04;96710.00;;;32.70
14851;BMP180;7517;48.400;11.770;2022-08-02T12:32:36;96706.00;;;32.70
14851;BMP180;7517;48.400;11.770;2022-08-02T12:35:11;96703.00;;;32.60
14851;BMP180;7517;48.400;11.770;2022-08-02T12:37:50;96703.00;;;32.70
14851;BMP180;7517;48.400;11.770;2022-08-02T12:40:32;96713.00;;;32.70
14851;BMP180;7517;48.400;11.770;2022-08-02T12:43:07;96703.00;;;32.80
14851;BMP180;7517;48.400;11.770;2022-08-02T12:45:49;96702.00;;;32.80
14851;BMP180;7517;48.400;11.770;2022-08-02T12:48:37;96700.00;;;32.80
14851;BMP180;7517;48.400;11.770;2022-08-02T12:51:26;96693.00;;;32.80
14851;BMP180;7517;48.400;11.770;2022-08-02T12:54:11;96690.00;;;32.80
14851;BMP180;7517;48.400;11.770;2022-08-02T12:56:39;96687.00;;;32.80
14851;BMP180;7517;48.400;11.770;2022-08-02T12:59:10;96681.00;;;32.80
14851;BMP180;7517;48.400;11.770;2022-08-02T13:01:40;96687.00;;;32.80
14851;BMP180;7517;48.400;11.770;2022-08-02T13:04:08;96687.00;;;32.80
14851;BMP180;7517;48.400;11.770;2022-08-02T13:06:38;96682.00;;;32.80
14851;BMP180;7517;48.400;11.770;2022-08-02T13:09:20;96684.00;;;32.80
14851;BMP180;7517;48.400;11.770;2022-08-02T13:11:51;96680.00;;;32.80
14851;BMP180;7517;48.400;11.770;2022-08-02T13:14:25;96682.00;;;32.80
14851;BMP180;7517;48.400;11.770;2022-08-02T13:16:52;96677.00;;;32.80
14851;BMP180;7517;48.400;11.770;2022-08-02T13:19:21;96672.00;;;32.80
14851;BMP180;7517;48.400;11.770;2022-08-02T13:21:53;96675.00;;;32.80
14851;BMP180;7517;48.400;11.770;2022-08-02T13:24:21;96669.00;;;32.80
14851;BMP180;7517;48.400;11.770;2022-08-02T13:26:48;96669.00;;;32.80
14851;BMP180;7517;48.400;11.770;2022-08-02T13:29:15;96667.00;;;32.80
14851;BMP180;7517;48.400;11.770;2022-08-02T13:31:44;96658.00;;;32.80
14851;BMP180;7517;48.400;11.770;2022-08-02T13:34:11;96658.00;;;32.80
14851;BMP180;7517;48.400;11.770;2022-08-02T13:36:38;96659.00;;;32.70
14851;BMP180;7517;48.400;11.770;2022-08-02T13:39:06;96652.00;;;32.70
14851;BMP180;7517;48.400;11.770;2022-08-02T13:41:34;96651.00;;;32.70
14851;BMP180;7517;48.400;11.770;2022-08-02T13:44:01;96654.00;;;32.60
14851;BMP180;7517;48.400;11.770;2022-08-02T13:46:28;96648.00;;;32.60
14851;BMP180;7517;48.400;11.770;2022-08-02T13:48:56;96651.00;;;32.60
14851;BMP180;7517;48.400;11.770;2022-08-02T13:51:24;96652.00;;;32.60
14851;BMP180;7517;48.400;11.770;2022-08-02T13:53:51;96651.00;;;32.60
14851;BMP180;7517;48.400;11.770;2022-08-02T13:56:18;96642.00;;;32.60
14851;BMP180;7517;48.400;11.770;2022-08-02T13:58:45;96639.00;;;32.60
14851;BMP180;7517;48.400;11.770;2022-08-02T14:01:12;96634.00;;;32.60
14851;BMP180;7517;48.400;11.770;2022-08-02T14:03:39;96638.00;;;32.60
14851;BMP180;7517;48.400;11.770;2022-08-02T14:06:08;96636.00;;;32.60
14851;BMP180;7517;48.400;11.770;2022-08-02T14:08:36;96636.00;;;32.60
14851;BMP180;7517;48.400;11.770;2022-08-02T14:11:04;96632.00;;;32.60
14851;BMP180;7517;48.400;11.770;2022-08-02T14:13:31;96636.00;;;32.60
14851;BMP180;7517;48.400;11.770;2022-08-02T14:15:58;96623.00;;;32.60
14851;BMP180;7517;48.400;11.770;2022-08-02T14:18:25;96632.00;;;32.60
14851;BMP180;7517;48.400;11.770;2022-08-02T14:20:53;96619.00;;;32.50
14851;BMP180;7517;48.400;11.770;2022-08-02T14:23:21;96622.00;;;32.50
14851;BMP180;7517;48.400;11.770;2022-08-02T14:25:48;96623.00;;;32.50
14851;BMP180;7517;48.400;11.770;2022-08-02T14:28:16;96627.00;;;32.50
14851;BMP180;7517;48.400;11.770;2022-08-02T14:30:43;96620.00;;;32.50
14851;BMP180;7517;48.400;11.770;2022-08-02T14:33:10;96620.00;;;32.50
14851;BMP180;7517;48.400;11.770;2022-08-02T14:35:38;96625.00;;;32.40